Terminal Aerodrome Forecast
Issued by NWS North Platte, NE

Home | Current Version | Previous Version | Graphics & Text | Print | Product List | Glossary On
Versions: 1 2 3 4 5 6 7 8 9 10 11 12 13 14
000
FTUS43 KLBF 172300
TAFVTN
TAF
KVTN 172325Z 1800/1824 14012KT P6SM BKN200
     FM180200 13005KT P6SM SCT200
     FM180900 VRB06KT P6SM SCT250
     FM181500 02009KT P6SM SCT250=

USA.gov is the U.S. government's official web portal to all federal, state and local government web resources and services.